Terminal Aerodrome Forecast
Issued by NWS Amarillo, TX

Home | Current Version | Previous Version | Text Only | Print | Product List | Glossary On
Versions: 1 2 3 4 5 6 7 8 9 10 11 12 13 14 15 16 17 18 19 20 21 22 23 24
524
FTUS44 KAMA 231130
TAFAMA
TAF
KAMA 231130Z 2312/2412 35018G28KT P6SM SCT020 OVC060
     FM231700 35018G28KT P6SM SCT070
     FM240300 34007KT P6SM SCT250=

USA.gov is the U.S. government's official web portal to all federal, state and local government web resources and services.